Time;durP1;ratioP1;P1;durP2;ratioP2;P2;SDS_P1;SDS_P2;PMS_P1;PMS_P2;Temp;Humidity;BMP_temperature;BMP_pressure;BME280_temperature;BME280_humidity;BME280_pressure;Samples;Min_cycle;Max_cycle;Signal;HPM_P1;HPM_P2
2023/09/13 00:00:56;;;;;;;;;;;24.00;57.20;;;;;;1570145;74;846;-69
2023/09/13 00:02:58;;;;;;;;;;;24.10;57.40;;;;;;1568020;74;710;-70
2023/09/13 00:05:00;;;;;;;;;;;24.00;57.30;;;;;;1571749;74;716;-68
2023/09/13 00:07:01;;;;;;;;;;;24.00;57.20;;;;;;1565817;74;1093;-70
2023/09/13 00:09:04;;;;;;;;;;;24.00;57.30;;;;;;1566156;74;677;-71
2023/09/13 00:11:05;;;;;;;;;;;24.00;57.30;;;;;;1567392;74;744;-69
2023/09/13 00:13:07;;;;;;;;;;;24.00;57.30;;;;;;1559189;74;755;-69
2023/09/13 00:15:10;;;;;;;;;;;24.00;57.30;;;;;;1569519;74;1982;-68
2023/09/13 00:17:12;;;;;;;;;;;24.00;57.30;;;;;;1566637;74;1148;-70
2023/09/13 00:19:14;;;;;;;;;;;24.00;57.30;;;;;;1570644;74;747;-70
2023/09/13 00:21:17;;;;;;;;;;;24.00;57.20;;;;;;1570677;74;717;-68
2023/09/13 00:23:19;;;;;;;;;;;24.00;57.20;;;;;;1562371;74;745;-70
2023/09/13 00:25:21;;;;;;;;;;;24.00;57.20;;;;;;1569629;74;746;-70
2023/09/13 00:27:23;;;;;;;;;;;24.00;57.20;;;;;;1564340;74;1101;-66
2023/09/13 00:29:25;;;;;;;;;;;24.00;57.20;;;;;;1565662;74;645;-70
2023/09/13 00:31:27;;;;;;;;;;;24.00;57.20;;;;;;1560409;74;665;-70
2023/09/13 00:33:33;;;;;;;;;;;24.00;57.20;;;;;;1561916;74;759;-70
2023/09/13 00:35:32;;;;;;;;;;;24.00;57.20;;;;;;1568343;74;1931;-68
2023/09/13 00:37:34;;;;;;;;;;;24.00;57.20;;;;;;1571949;74;1100;-70
2023/09/13 00:39:36;;;;;;;;;;;24.00;57.20;;;;;;1564762;74;681;-69
2023/09/13 00:41:38;;;;;;;;;;;24.00;57.20;;;;;;1567613;74;727;-70
2023/09/13 00:43:40;;;;;;;;;;;24.00;57.30;;;;;;1572528;74;720;-70
2023/09/13 00:45:42;;;;;;;;;;;24.00;57.20;;;;;;1570505;74;731;-68
2023/09/13 00:47:43;;;;;;;;;;;23.90;57.20;;;;;;1562865;74;1392;-69
2023/09/13 00:49:47;;;;;;;;;;;24.00;57.20;;;;;;1564276;74;768;-70
2023/09/13 00:51:49;;;;;;;;;;;24.00;57.10;;;;;;1566503;74;667;-69
2023/09/13 00:53:51;;;;;;;;;;;24.00;57.20;;;;;;1566067;74;724;-70
2023/09/13 00:55:53;;;;;;;;;;;24.00;57.10;;;;;;1564332;74;1930;-68
2023/09/13 00:57:55;;;;;;;;;;;24.00;57.10;;;;;;1561458;74;1069;-70
2023/09/13 00:59:57;;;;;;;;;;;24.00;57.10;;;;;;1558358;74;712;-69
2023/09/13 01:01:59;;;;;;;;;;;24.00;57.00;;;;;;1560568;75;764;-69
2023/09/13 01:04:01;;;;;;;;;;;24.00;57.10;;;;;;1567436;74;707;-70
2023/09/13 01:06:03;;;;;;;;;;;24.00;57.10;;;;;;1570441;74;680;-67
2023/09/13 01:08:05;;;;;;;;;;;24.00;57.00;;;;;;1569165;74;1069;-69
2023/09/13 01:10:08;;;;;;;;;;;24.00;57.00;;;;;;1563564;74;707;-69
2023/09/13 01:12:09;;;;;;;;;;;24.00;56.90;;;;;;1567328;74;788;-69
2023/09/13 01:14:11;;;;;;;;;;;24.00;56.90;;;;;;1570324;74;1934;-68
2023/09/13 01:16:15;;;;;;;;;;;24.00;56.90;;;;;;1566183;74;819;-69
2023/09/13 01:18:19;;;;;;;;;;;24.00;56.90;;;;;;1572111;74;1129;-70
2023/09/13 01:20:31;;;;;;;;;;;24.00;56.80;;;;;;1563532;74;1809;-69
2023/09/13 01:22:35;;;;;;;;;;;23.90;56.80;;;;;;1558092;74;1933;-69
2023/09/13 01:24:41;;;;;;;;;;;24.00;56.80;;;;;;1571398;74;740;-69
2023/09/13 01:26:53;;;;;;;;;;;24.00;56.80;;;;;;1570574;74;1124;-68
2023/09/13 01:28:55;;;;;;;;;;;23.90;56.80;;;;;;1567295;74;1729;-69
2023/09/13 01:30:57;;;;;;;;;;;24.00;56.80;;;;;;1570234;74;766;-69
2023/09/13 01:32:59;;;;;;;;;;;23.90;56.80;;;;;;1568949;74;749;-69
2023/09/13 01:35:01;;;;;;;;;;;24.00;56.80;;;;;;1570164;74;1926;-70
2023/09/13 01:37:04;;;;;;;;;;;24.00;56.80;;;;;;1570018;74;1070;-69
2023/09/13 01:39:06;;;;;;;;;;;23.90;56.70;;;;;;1566846;74;712;-70
2023/09/13 01:41:09;;;;;;;;;;;23.90;56.70;;;;;;1569243;74;744;-69
2023/09/13 01:43:11;;;;;;;;;;;23.90;56.70;;;;;;1568633;74;1456;-70
2023/09/13 01:45:13;;;;;;;;;;;23.90;56.70;;;;;;1558700;74;793;-69
2023/09/13 01:47:15;;;;;;;;;;;23.90;56.70;;;;;;1568527;74;1180;-69
2023/09/13 01:49:18;;;;;;;;;;;24.00;56.70;;;;;;1567960;74;749;-70
2023/09/13 01:51:20;;;;;;;;;;;24.00;56.70;;;;;;1568817;74;685;-70
2023/09/13 01:53:22;;;;;;;;;;;23.90;56.70;;;;;;1562854;74;794;-71
2023/09/13 01:55:23;;;;;;;;;;;24.00;56.70;;;;;;1568791;74;1933;-68
2023/09/13 01:57:25;;;;;;;;;;;24.00;56.70;;;;;;1563015;74;1136;-70
2023/09/13 01:59:27;;;;;;;;;;;24.00;56.70;;;;;;1569915;74;742;-69
2023/09/13 02:01:29;;;;;;;;;;;23.90;56.60;;;;;;1570145;74;686;-70
2023/09/13 02:03:31;;;;;;;;;;;24.00;56.60;;;;;;1569929;74;751;-70
2023/09/13 02:05:33;;;;;;;;;;;23.90;56.60;;;;;;1554907;74;786;-70
2023/09/13 02:07:35;;;;;;;;;;;24.00;56.60;;;;;;1554571;74;1095;-69
2023/09/13 02:09:37;;;;;;;;;;;23.90;56.60;;;;;;1570736;74;735;-71
2023/09/13 02:11:39;;;;;;;;;;;24.00;56.60;;;;;;1555529;74;819;-69
2023/09/13 02:13:41;;;;;;;;;;;23.90;56.60;;;;;;1568865;74;689;-69
2023/09/13 02:15:43;;;;;;;;;;;23.90;56.50;;;;;;1562199;74;1945;-70
2023/09/13 02:17:45;;;;;;;;;;;24.00;56.60;;;;;;1570668;74;1136;-69
2023/09/13 02:19:50;;;;;;;;;;;23.90;56.10;;;;;;1570103;74;734;-69
2023/09/13 02:21:52;;;;;;;;;;;24.00;56.30;;;;;;1559036;74;829;-69
2023/09/13 02:23:54;;;;;;;;;;;23.90;56.50;;;;;;1570285;74;675;-71
2023/09/13 02:25:56;;;;;;;;;;;24.00;56.40;;;;;;1570295;74;724;-70
2023/09/13 02:27:57;;;;;;;;;;;23.90;56.00;;;;;;1567292;74;1137;-70
2023/09/13 02:29:59;;;;;;;;;;;23.90;55.70;;;;;;1561980;74;721;-70
2023/09/13 02:32:01;;;;;;;;;;;23.90;55.70;;;;;;1565146;74;696;-70
2023/09/13 02:34:03;;;;;;;;;;;23.90;56.10;;;;;;1571500;74;732;-69
2023/09/13 02:36:05;;;;;;;;;;;23.90;56.30;;;;;;1565642;74;1919;-70
2023/09/13 02:38:07;;;;;;;;;;;23.90;56.30;;;;;;1562929;74;1148;-69
2023/09/13 02:40:09;;;;;;;;;;;23.90;55.70;;;;;;1566985;74;1274;-70
2023/09/13 02:42:11;;;;;;;;;;;23.90;56.10;;;;;;1566250;74;688;-70
2023/09/13 02:44:13;;;;;;;;;;;23.90;56.10;;;;;;1534851;76;690;-71
2023/09/13 02:46:15;;;;;;;;;;;23.90;56.20;;;;;;1526126;76;791;-70
2023/09/13 02:48:17;;;;;;;;;;;23.90;56.20;;;;;;1499967;77;1144;-70
2023/09/13 02:50:19;;;;;;;;;;;23.90;56.20;;;;;;1520139;77;780;-68
2023/09/13 02:52:33;;;;;;;;;;;23.90;56.20;;;;;;1522049;76;803;-70
2023/09/13 02:54:35;;;;;;;;;;;23.90;56.20;;;;;;1527789;76;813;-69
2023/09/13 02:56:37;;;;;;;;;;;23.90;56.10;;;;;;1529579;76;1936;-69
2023/09/13 02:58:39;;;;;;;;;;;23.90;56.20;;;;;;1531636;76;855;-70
2023/09/13 03:00:43;;;;;;;;;;;23.90;56.10;;;;;;1514645;77;689;-70
2023/09/13 03:02:45;;;;;;;;;;;23.90;56.20;;;;;;1514043;77;735;-69
2023/09/13 03:04:49;;;;;;;;;;;23.90;55.80;;;;;;1503879;77;711;-70
2023/09/13 03:06:51;;;;;;;;;;;23.90;56.10;;;;;;1500525;77;1069;-69
2023/09/13 03:08:52;;;;;;;;;;;23.90;56.10;;;;;;1520891;77;760;-69
2023/09/13 03:10:54;;;;;;;;;;;23.90;56.10;;;;;;1517588;77;766;-70
2023/09/13 03:12:56;;;;;;;;;;;23.90;55.50;;;;;;1522223;77;779;-71
2023/09/13 03:14:58;;;;;;;;;;;23.90;55.90;;;;;;1521053;76;1925;-69
2023/09/13 03:17:00;;;;;;;;;;;23.90;56.00;;;;;;1520903;77;1076;-68
2023/09/13 03:19:02;;;;;;;;;;;23.90;56.00;;;;;;1523870;77;808;-71
2023/09/13 03:21:05;;;;;;;;;;;23.90;56.00;;;;;;1525252;77;740;-69
2023/09/13 03:23:07;;;;;;;;;;;23.90;56.00;;;;;;1520620;77;792;-69
2023/09/13 03:25:09;;;;;;;;;;;23.90;56.00;;;;;;1525255;77;733;-69
2023/09/13 03:27:11;;;;;;;;;;;23.90;56.00;;;;;;1522390;76;1103;-70
2023/09/13 03:29:13;;;;;;;;;;;23.80;55.90;;;;;;1515043;76;685;-70
2023/09/13 03:31:15;;;;;;;;;;;23.90;56.00;;;;;;1518437;77;725;-70
2023/09/13 03:33:17;;;;;;;;;;;23.90;56.00;;;;;;1523376;77;783;-70
2023/09/13 03:35:19;;;;;;;;;;;23.90;56.00;;;;;;1524963;78;1932;-69
2023/09/13 03:37:21;;;;;;;;;;;23.90;56.00;;;;;;1522804;78;1571;-69
2023/09/13 03:39:28;;;;;;;;;;;23.90;56.00;;;;;;1514696;78;747;-70
2023/09/13 03:41:27;;;;;;;;;;;23.90;56.00;;;;;;1523092;78;1486;-69
2023/09/13 03:43:29;;;;;;;;;;;23.90;56.00;;;;;;1517343;77;692;-70
2023/09/13 03:45:30;;;;;;;;;;;23.90;56.00;;;;;;1523338;77;817;-70
2023/09/13 03:47:32;;;;;;;;;;;23.90;56.00;;;;;;1515439;77;1225;-69
2023/09/13 03:49:34;;;;;;;;;;;23.90;56.00;;;;;;1518240;78;746;-68
2023/09/13 03:51:36;;;;;;;;;;;23.90;56.00;;;;;;1522476;77;745;-72
2023/09/13 03:53:38;;;;;;;;;;;23.90;56.00;;;;;;1525241;77;729;-70
2023/09/13 03:55:40;;;;;;;;;;;23.90;56.00;;;;;;1514263;77;1946;-70
2023/09/13 03:57:42;;;;;;;;;;;23.90;56.00;;;;;;1521751;77;1126;-69
2023/09/13 03:59:44;;;;;;;;;;;23.90;56.00;;;;;;1516702;78;735;-70
2023/09/13 04:01:46;;;;;;;;;;;23.90;56.00;;;;;;1520875;77;688;-69
2023/09/13 04:03:48;;;;;;;;;;;23.90;56.00;;;;;;1514863;76;740;-69
2023/09/13 04:05:49;;;;;;;;;;;23.90;56.00;;;;;;1525004;77;668;-70
2023/09/13 04:07:51;;;;;;;;;;;23.90;56.10;;;;;;1523726;77;1100;-70
2023/09/13 04:09:54;;;;;;;;;;;23.90;56.10;;;;;;1513455;78;744;-71
2023/09/13 04:11:56;;;;;;;;;;;23.90;56.00;;;;;;1522300;77;791;-69
2023/09/13 04:13:58;;;;;;;;;;;23.90;56.00;;;;;;1521436;76;754;-71
2023/09/13 04:16:03;;;;;;;;;;;23.90;56.00;;;;;;1525698;77;1925;-70
2023/09/13 04:18:07;;;;;;;;;;;23.90;56.10;;;;;;1523804;76;1144;-70
2023/09/13 04:20:09;;;;;;;;;;;23.90;56.00;;;;;;1522867;77;1719;-70
2023/09/13 04:22:16;;;;;;;;;;;23.90;56.00;;;;;;1520573;76;856;-70
2023/09/13 04:24:14;;;;;;;;;;;23.90;56.10;;;;;;1520550;76;1674;-71
2023/09/13 04:26:21;;;;;;;;;;;23.90;56.10;;;;;;1520526;76;724;-66
2023/09/13 04:28:20;;;;;;;;;;;23.90;56.10;;;;;;1514927;77;1490;-69
2023/09/13 04:30:22;;;;;;;;;;;23.90;56.10;;;;;;1525017;77;871;-69
2023/09/13 04:32:27;;;;;;;;;;;23.90;56.10;;;;;;1514633;78;1540;-69
2023/09/13 04:34:30;;;;;;;;;;;23.90;56.00;;;;;;1522282;77;942;-69
2023/09/13 04:36:32;;;;;;;;;;;23.90;56.10;;;;;;1516522;78;1929;-69
2023/09/13 04:38:34;;;;;;;;;;;23.90;56.10;;;;;;1518139;78;962;-69
2023/09/13 04:40:37;;;;;;;;;;;23.80;56.10;;;;;;1517338;76;795;-69
2023/09/13 04:42:43;;;;;;;;;;;23.80;56.00;;;;;;1482240;78;1290;-70
2023/09/13 04:44:45;;;;;;;;;;;23.90;56.20;;;;;;1521723;77;764;-69
2023/09/13 04:46:47;;;;;;;;;;;23.90;56.20;;;;;;1515433;78;1130;-70
2023/09/13 04:48:48;;;;;;;;;;;23.90;56.20;;;;;;1521902;77;691;-69
2023/09/13 04:50:50;;;;;;;;;;;23.90;56.30;;;;;;1513482;77;688;-70
2023/09/13 04:52:52;;;;;;;;;;;23.80;56.20;;;;;;1521866;77;771;-69
2023/09/13 04:54:54;;;;;;;;;;;23.90;56.30;;;;;;1522811;76;780;-69
2023/09/13 04:56:56;;;;;;;;;;;23.90;56.30;;;;;;1511638;77;1946;-71
2023/09/13 04:58:58;;;;;;;;;;;23.80;56.30;;;;;;1518730;76;756;-70
2023/09/13 05:01:00;;;;;;;;;;;23.80;56.40;;;;;;1517050;77;721;-70
2023/09/13 05:03:02;;;;;;;;;;;23.90;56.40;;;;;;1524844;76;715;-70
2023/09/13 05:05:04;;;;;;;;;;;23.90;56.50;;;;;;1522346;77;792;-69
2023/09/13 05:07:06;;;;;;;;;;;23.90;56.50;;;;;;1524127;77;1130;-71
2023/09/13 05:09:07;;;;;;;;;;;23.80;56.50;;;;;;1524208;77;1011;-70
2023/09/13 05:11:09;;;;;;;;;;;23.90;56.60;;;;;;1522585;76;744;-70
2023/09/13 05:13:12;;;;;;;;;;;23.90;56.70;;;;;;1521514;77;693;-69
2023/09/13 05:15:14;;;;;;;;;;;23.80;56.50;;;;;;1523254;76;688;-69
2023/09/13 05:17:15;;;;;;;;;;;23.90;56.70;;;;;;1522119;77;1928;-68
2023/09/13 05:19:22;;;;;;;;;;;23.80;56.60;;;;;;1528056;76;718;-67
2023/09/13 05:21:21;;;;;;;;;;;23.90;56.80;;;;;;1514909;76;1280;-69
2023/09/13 05:23:23;;;;;;;;;;;23.80;56.70;;;;;;1523540;77;595;-68
2023/09/13 05:25:25;;;;;;;;;;;23.90;56.70;;;;;;1525723;77;741;-69
2023/09/13 05:27:27;;;;;;;;;;;23.80;56.80;;;;;;1523071;76;1162;-70
2023/09/13 05:29:29;;;;;;;;;;;23.90;56.80;;;;;;1524619;77;1530;-70
2023/09/13 05:31:31;;;;;;;;;;;23.90;56.80;;;;;;1516653;77;745;-68
2023/09/13 05:33:34;;;;;;;;;;;23.90;56.80;;;;;;1521556;77;741;-70
2023/09/13 05:35:35;;;;;;;;;;;23.80;56.80;;;;;;1524271;77;601;-71
2023/09/13 05:37:37;;;;;;;;;;;23.90;57.00;;;;;;1522501;77;1944;-70
2023/09/13 05:39:40;;;;;;;;;;;23.90;57.00;;;;;;1520902;76;769;-70
2023/09/13 05:41:42;;;;;;;;;;;23.80;56.80;;;;;;1532166;76;724;-69
2023/09/13 05:43:44;;;;;;;;;;;23.90;57.00;;;;;;1533259;76;812;-69
2023/09/13 05:45:46;;;;;;;;;;;23.80;57.00;;;;;;1536083;76;916;-69
2023/09/13 05:47:51;;;;;;;;;;;23.80;56.90;;;;;;1530117;76;1146;-69
2023/09/13 05:49:53;;;;;;;;;;;23.90;57.10;;;;;;1496082;77;799;-70
2023/09/13 05:51:55;;;;;;;;;;;23.90;57.00;;;;;;1524384;76;712;-69
2023/09/13 05:53:57;;;;;;;;;;;23.90;57.20;;;;;;1534580;76;821;-69
2023/09/13 05:55:58;;;;;;;;;;;23.90;57.10;;;;;;1523194;76;1909;-69
2023/09/13 05:58:00;;;;;;;;;;;23.80;57.10;;;;;;1512046;77;1180;-69
2023/09/13 06:00:02;;;;;;;;;;;23.90;57.20;;;;;;1537580;76;718;-71
2023/09/13 06:02:04;;;;;;;;;;;23.90;57.20;;;;;;1514268;77;673;-69
2023/09/13 06:04:07;;;;;;;;;;;23.90;57.20;;;;;;1569889;74;795;-69
2023/09/13 06:06:09;;;;;;;;;;;23.90;57.30;;;;;;1558807;74;669;-69
2023/09/13 06:08:11;;;;;;;;;;;23.90;57.30;;;;;;1565218;74;1067;-69
2023/09/13 06:10:12;;;;;;;;;;;23.80;57.20;;;;;;1564103;74;717;-69
2023/09/13 06:12:14;;;;;;;;;;;23.90;57.40;;;;;;1566717;74;780;-71
2023/09/13 06:14:18;;;;;;;;;;;23.90;57.30;;;;;;1569873;74;734;-71
2023/09/13 06:16:20;;;;;;;;;;;23.90;57.30;;;;;;1566932;74;1912;-70
2023/09/13 06:18:23;;;;;;;;;;;23.90;57.40;;;;;;1571328;74;1114;-69
2023/09/13 06:20:25;;;;;;;;;;;23.90;57.40;;;;;;1569147;74;786;-70
2023/09/13 06:22:27;;;;;;;;;;;23.80;57.30;;;;;;1570394;74;717;-68
2023/09/13 06:24:29;;;;;;;;;;;23.90;57.50;;;;;;1537918;76;1524;-70
2023/09/13 06:26:31;;;;;;;;;;;23.90;57.40;;;;;;1568288;74;1154;-68
2023/09/13 06:28:32;;;;;;;;;;;23.80;57.40;;;;;;1564798;74;744;-69
2023/09/13 06:30:34;;;;;;;;;;;23.90;57.50;;;;;;1566318;74;749;-69
2023/09/13 06:32:36;;;;;;;;;;;23.90;57.60;;;;;;1563526;74;710;-70
2023/09/13 06:34:38;;;;;;;;;;;23.90;57.60;;;;;;1568582;74;764;-70
2023/09/13 06:36:40;;;;;;;;;;;23.90;57.60;;;;;;1568635;74;1926;-70
2023/09/13 06:38:42;;;;;;;;;;;23.90;57.60;;;;;;1567137;74;792;-71
2023/09/13 06:40:47;;;;;;;;;;;23.90;57.60;;;;;;1560131;74;698;-70
2023/09/13 06:42:48;;;;;;;;;;;23.90;57.70;;;;;;1555817;74;1501;-69
2023/09/13 06:44:49;;;;;;;;;;;23.90;57.80;;;;;;1568490;74;781;-70
2023/09/13 06:46:51;;;;;;;;;;;23.90;57.70;;;;;;1563351;74;1149;-70
2023/09/13 06:48:53;;;;;;;;;;;23.90;57.80;;;;;;1563370;74;689;-70
2023/09/13 06:50:55;;;;;;;;;;;23.90;57.80;;;;;;1565161;74;736;-71
2023/09/13 06:52:57;;;;;;;;;;;23.90;57.80;;;;;;1565251;74;813;-70
2023/09/13 06:54:59;;;;;;;;;;;23.90;57.80;;;;;;1565933;74;749;-68
2023/09/13 06:57:01;;;;;;;;;;;23.90;57.80;;;;;;1576391;74;1942;-69
2023/09/13 06:59:03;;;;;;;;;;;23.90;57.80;;;;;;1572263;74;726;-69
2023/09/13 07:01:05;;;;;;;;;;;23.90;57.80;;;;;;1569955;74;778;-69
2023/09/13 07:03:08;;;;;;;;;;;23.80;57.70;;;;;;1569047;74;741;-69
2023/09/13 07:05:09;;;;;;;;;;;23.90;57.80;;;;;;1570264;74;759;-69
2023/09/13 07:07:11;;;;;;;;;;;23.90;57.80;;;;;;1565545;74;1162;-70
2023/09/13 07:09:13;;;;;;;;;;;23.80;58.10;;;;;;1568236;74;678;-69
2023/09/13 07:11:16;;;;;;;;;;;23.90;57.90;;;;;;1569218;74;776;-70
2023/09/13 07:13:18;;;;;;;;;;;23.90;58.10;;;;;;1566244;74;777;-70
2023/09/13 07:15:19;;;;;;;;;;;23.90;58.20;;;;;;1561254;74;739;-69
2023/09/13 07:17:21;;;;;;;;;;;23.90;58.20;;;;;;1560113;74;1933;-69
2023/09/13 07:19:23;;;;;;;;;;;23.90;58.30;;;;;;1569952;75;713;-71
2023/09/13 07:21:25;;;;;;;;;;;23.90;58.40;;;;;;1566065;74;1514;-70
2023/09/13 07:23:27;;;;;;;;;;;23.80;57.90;;;;;;1569671;74;742;-70
2023/09/13 07:25:29;;;;;;;;;;;23.90;58.20;;;;;;1570201;74;774;-69
2023/09/13 07:27:31;;;;;;;;;;;23.90;58.00;;;;;;1570540;74;1159;-70
2023/09/13 07:29:33;;;;;;;;;;;23.90;58.00;;;;;;1575537;74;787;-69
2023/09/13 07:31:35;;;;;;;;;;;23.90;58.10;;;;;;1558604;74;766;-70
2023/09/13 07:33:37;;;;;;;;;;;23.90;58.00;;;;;;1560090;74;776;-69
2023/09/13 07:35:39;;;;;;;;;;;23.90;57.90;;;;;;1568583;74;692;-70
2023/09/13 07:37:40;;;;;;;;;;;23.90;58.00;;;;;;1570436;74;1978;-71
2023/09/13 07:39:42;;;;;;;;;;;23.90;58.00;;;;;;1568995;74;795;-69
2023/09/13 07:41:44;;;;;;;;;;;23.90;58.10;;;;;;1570492;74;819;-70
2023/09/13 07:43:46;;;;;;;;;;;23.90;58.10;;;;;;1568776;74;730;-70
2023/09/13 07:45:48;;;;;;;;;;;23.90;58.10;;;;;;1566596;74;604;-70
2023/09/13 07:47:50;;;;;;;;;;;23.90;57.90;;;;;;1570581;74;1171;-70
2023/09/13 07:49:52;;;;;;;;;;;23.90;58.00;;;;;;1570514;74;706;-71
2023/09/13 07:51:54;;;;;;;;;;;23.90;57.90;;;;;;1568908;74;634;-70
2023/09/13 07:54:02;;;;;;;;;;;23.90;58.10;;;;;;1562309;74;796;-71
2023/09/13 07:56:02;;;;;;;;;;;23.90;58.30;;;;;;1563424;74;1642;-70
2023/09/13 07:58:05;;;;;;;;;;;23.90;58.10;;;;;;1567151;74;1943;-67
2023/09/13 08:00:07;;;;;;;;;;;23.90;58.10;;;;;;1567376;74;749;-69
2023/09/13 08:02:09;;;;;;;;;;;24.00;58.10;;;;;;1567659;74;685;-69
2023/09/13 08:04:11;;;;;;;;;;;23.90;58.10;;;;;;1568095;74;877;-69
2023/09/13 08:06:13;;;;;;;;;;;23.90;58.20;;;;;;1560973;74;695;-70
2023/09/13 08:08:18;;;;;;;;;;;24.00;58.20;;;;;;1569550;74;1145;-71
2023/09/13 08:10:18;;;;;;;;;;;23.90;58.20;;;;;;1566408;74;1676;-69
2023/09/13 08:12:20;;;;;;;;;;;24.00;58.40;;;;;;1555367;74;822;-69
2023/09/13 08:14:22;;;;;;;;;;;24.00;58.30;;;;;;1570786;74;869;-69
2023/09/13 08:16:24;;;;;;;;;;;24.00;58.20;;;;;;1567900;74;765;-69
2023/09/13 08:18:26;;;;;;;;;;;23.90;58.40;;;;;;1569691;74;1938;-70
2023/09/13 08:20:28;;;;;;;;;;;23.90;58.20;;;;;;1560964;74;808;-71
2023/09/13 08:22:29;;;;;;;;;;;23.90;58.30;;;;;;1564114;74;767;-69
2023/09/13 08:24:33;;;;;;;;;;;23.90;58.30;;;;;;1570144;74;675;-69
2023/09/13 08:26:34;;;;;;;;;;;24.00;58.40;;;;;;1562943;74;1172;-70
2023/09/13 08:28:36;;;;;;;;;;;24.00;58.40;;;;;;1565814;74;704;-70
2023/09/13 08:30:38;;;;;;;;;;;24.00;58.40;;;;;;1568430;74;758;-70
2023/09/13 08:32:40;;;;;;;;;;;23.90;58.50;;;;;;1557385;74;809;-69
2023/09/13 08:34:42;;;;;;;;;;;24.00;58.50;;;;;;1572384;74;761;-69
2023/09/13 08:36:44;;;;;;;;;;;24.00;58.40;;;;;;1568046;74;1221;-69
2023/09/13 08:38:46;;;;;;;;;;;24.00;58.40;;;;;;1568487;74;1949;-70
2023/09/13 08:40:49;;;;;;;;;;;24.00;58.40;;;;;;1563555;74;878;-69
2023/09/13 08:42:52;;;;;;;;;;;24.00;58.40;;;;;;1567960;74;792;-71
2023/09/13 08:44:54;;;;;;;;;;;24.00;58.40;;;;;;1562466;74;724;-69
2023/09/13 08:46:57;;;;;;;;;;;24.00;58.30;;;;;;1558272;74;1109;-70
2023/09/13 08:48:59;;;;;;;;;;;24.00;58.30;;;;;;1569892;74;787;-69
2023/09/13 08:51:03;;;;;;;;;;;24.00;58.30;;;;;;1569732;74;690;-69
2023/09/13 08:53:05;;;;;;;;;;;24.00;58.40;;;;;;1566257;74;708;-70
2023/09/13 08:55:07;;;;;;;;;;;24.00;58.30;;;;;;1525175;76;717;-70
2023/09/13 08:57:08;;;;;;;;;;;24.00;58.30;;;;;;1571058;74;1941;-69
2023/09/13 08:59:10;;;;;;;;;;;24.00;58.30;;;;;;1564257;74;840;-70
2023/09/13 09:01:13;;;;;;;;;;;24.00;58.40;;;;;;1568399;74;758;-71
2023/09/13 09:03:15;;;;;;;;;;;24.00;58.30;;;;;;1569401;74;750;-70
2023/09/13 09:05:17;;;;;;;;;;;24.00;58.30;;;;;;1565427;74;684;-70
2023/09/13 09:07:19;;;;;;;;;;;24.00;58.30;;;;;;1565695;74;1189;-70
2023/09/13 09:09:23;;;;;;;;;;;24.00;58.40;;;;;;1564437;74;719;-69
2023/09/13 09:11:26;;;;;;;;;;;24.00;58.40;;;;;;1575676;74;678;-70
2023/09/13 09:13:29;;;;;;;;;;;23.90;58.40;;;;;;1566224;74;1314;-70
2023/09/13 09:15:32;;;;;;;;;;;24.00;58.40;;;;;;1561782;74;703;-69
2023/09/13 09:17:33;;;;;;;;;;;24.00;58.30;;;;;;1556116;74;1948;-70
2023/09/13 09:19:35;;;;;;;;;;;24.00;58.40;;;;;;1570347;74;669;-69
2023/09/13 09:21:41;;;;;;;;;;;24.00;58.30;;;;;;1570016;74;836;-70
2023/09/13 09:23:41;;;;;;;;;;;24.00;58.40;;;;;;1556339;74;1220;-69
2023/09/13 09:25:44;;;;;;;;;;;24.00;58.20;;;;;;1567882;74;738;-69
2023/09/13 09:27:46;;;;;;;;;;;24.00;58.10;;;;;;1570188;74;1146;-69
2023/09/13 09:29:48;;;;;;;;;;;24.00;58.20;;;;;;1570479;74;779;-69
2023/09/13 09:31:52;;;;;;;;;;;24.00;58.20;;;;;;1570618;74;747;-68
2023/09/13 09:34:03;;;;;;;;;;;24.00;57.90;;;;;;1566791;74;714;-69
2023/09/13 09:36:05;;;;;;;;;;;24.00;58.10;;;;;;1558982;74;728;-69
2023/09/13 09:38:23;;;;;;;;;;;24.00;58.10;;;;;;1561650;74;1947;-70
2023/09/13 09:40:25;;;;;;;;;;;24.00;58.20;;;;;;1551482;74;789;-69
2023/09/13 09:42:29;;;;;;;;;;;24.00;58.20;;;;;;1568288;74;759;-69
2023/09/13 09:44:30;;;;;;;;;;;24.00;58.10;;;;;;1569804;74;1480;-69
2023/09/13 09:46:32;;;;;;;;;;;24.00;58.10;;;;;;1568794;74;1141;-68
2023/09/13 09:48:34;;;;;;;;;;;24.00;58.10;;;;;;1569261;74;698;-70
2023/09/13 09:50:38;;;;;;;;;;;24.00;57.90;;;;;;1572458;74;721;-70
2023/09/13 09:52:40;;;;;;;;;;;24.10;57.80;;;;;;1568200;74;976;-69
2023/09/13 09:54:43;;;;;;;;;;;24.00;57.50;;;;;;1564382;74;752;-69
2023/09/13 09:56:45;;;;;;;;;;;24.00;57.50;;;;;;1565772;74;1492;-67
2023/09/13 09:58:47;;;;;;;;;;;24.00;57.50;;;;;;1557993;74;1950;-69
2023/09/13 10:00:52;;;;;;;;;;;24.00;57.60;;;;;;1560904;74;791;-70
2023/09/13 10:02:54;;;;;;;;;;;24.00;57.60;;;;;;1564647;74;794;-69
2023/09/13 10:04:56;;;;;;;;;;;24.00;57.70;;;;;;1558907;74;763;-70
2023/09/13 10:06:59;;;;;;;;;;;24.00;57.70;;;;;;1569356;74;1172;-70
2023/09/13 10:09:01;;;;;;;;;;;24.00;57.60;;;;;;1569485;74;704;-69
2023/09/13 10:11:03;;;;;;;;;;;24.00;57.80;;;;;;1567630;74;1545;-69
2023/09/13 10:13:05;;;;;;;;;;;24.00;57.80;;;;;;1567408;74;705;-70
2023/09/13 10:15:07;;;;;;;;;;;24.00;57.80;;;;;;1575250;74;718;-69
2023/09/13 10:17:09;;;;;;;;;;;24.00;57.80;;;;;;1572318;74;1128;-70
2023/09/13 10:19:12;;;;;;;;;;;24.00;57.80;;;;;;1567679;74;1945;-69
2023/09/13 10:21:15;;;;;;;;;;;24.00;57.70;;;;;;1568622;74;667;-71
2023/09/13 10:23:17;;;;;;;;;;;24.00;57.70;;;;;;1566596;74;1039;-69
2023/09/13 10:25:19;;;;;;;;;;;24.00;57.70;;;;;;1570508;74;644;-69
2023/09/13 10:27:21;;;;;;;;;;;24.00;57.60;;;;;;1570025;74;1149;-70
2023/09/13 10:29:36;;;;;;;;;;;24.10;57.70;;;;;;1569479;74;858;-69
2023/09/13 10:31:45;;;;;;;;;;;24.00;57.60;;;;;;1563879;74;1734;-69
2023/09/13 10:33:48;;;;;;;;;;;24.00;57.70;;;;;;1559922;74;806;-69
2023/09/13 10:35:50;;;;;;;;;;;24.00;57.60;;;;;;1566154;74;1791;-69
2023/09/13 10:37:59;;;;;;;;;;;24.00;57.60;;;;;;1569923;74;1932;-69
2023/09/13 10:40:10;;;;;;;;;;;24.00;57.60;;;;;;1566303;74;1784;-69
2023/09/13 10:42:10;;;;;;;;;;;24.00;57.60;;;;;;1568368;74;1618;-70
2023/09/13 10:44:12;;;;;;;;;;;24.00;57.50;;;;;;1569201;74;811;-70
2023/09/13 10:46:14;;;;;;;;;;;24.00;57.60;;;;;;1561558;74;732;-69
2023/09/13 10:48:16;;;;;;;;;;;24.00;57.50;;;;;;1561864;74;1140;-71
2023/09/13 10:50:19;;;;;;;;;;;24.00;57.50;;;;;;1562775;74;689;-69
2023/09/13 10:52:21;;;;;;;;;;;24.00;57.50;;;;;;1558900;74;708;-69
2023/09/13 10:54:22;;;;;;;;;;;24.00;57.60;;;;;;1570467;74;738;-69
2023/09/13 10:56:24;;;;;;;;;;;24.00;57.60;;;;;;1561900;74;835;-69
2023/09/13 10:58:26;;;;;;;;;;;24.00;57.60;;;;;;1566236;74;1954;-70
2023/09/13 11:00:32;;;;;;;;;;;24.00;57.60;;;;;;1561957;74;792;-68
2023/09/13 11:02:32;;;;;;;;;;;24.00;57.60;;;;;;1562817;74;1691;-68
2023/09/13 11:04:34;;;;;;;;;;;24.00;57.50;;;;;;1531791;76;847;-69
2023/09/13 11:06:36;;;;;;;;;;;24.00;57.60;;;;;;1529512;76;1298;-70
2023/09/13 11:08:38;;;;;;;;;;;24.00;57.60;;;;;;1532671;76;750;-71
2023/09/13 11:10:40;;;;;;;;;;;23.90;57.60;;;;;;1523089;76;728;-70
2023/09/13 11:12:48;;;;;;;;;;;24.00;57.50;;;;;;1503452;77;723;-69
2023/09/13 11:14:48;;;;;;;;;;;24.00;57.50;;;;;;1524278;77;1509;-69
2023/09/13 11:16:50;;;;;;;;;;;24.00;57.40;;;;;;1521445;77;1139;-69
2023/09/13 11:18:52;;;;;;;;;;;24.00;57.50;;;;;;1502427;77;1919;-70
2023/09/13 11:20:55;;;;;;;;;;;24.00;57.50;;;;;;1502110;77;682;-70
2023/09/13 11:23:05;;;;;;;;;;;23.90;57.50;;;;;;1526195;76;780;-70
2023/09/13 11:25:10;;;;;;;;;;;24.00;57.50;;;;;;1501653;77;692;-69
2023/09/13 11:27:13;;;;;;;;;;;24.00;57.40;;;;;;1535441;76;1143;-68
2023/09/13 11:29:24;;;;;;;;;;;24.00;57.40;;;;;;1563970;74;679;-69
2023/09/13 11:31:26;;;;;;;;;;;24.00;57.70;;;;;;1570564;74;779;-69
2023/09/13 11:33:30;;;;;;;;;;;24.00;57.60;;;;;;1575736;74;760;-69
2023/09/13 11:35:34;;;;;;;;;;;24.00;57.60;;;;;;1569297;74;1673;-69
2023/09/13 11:37:35;;;;;;;;;;;24.00;57.60;;;;;;1566579;74;1655;-69
2023/09/13 11:39:38;;;;;;;;;;;24.00;57.60;;;;;;1537110;76;1934;-69
2023/09/13 11:41:40;;;;;;;;;;;24.00;57.70;;;;;;1565488;74;728;-70
2023/09/13 11:43:42;;;;;;;;;;;24.00;57.90;;;;;;1567850;74;743;-71
2023/09/13 11:45:45;;;;;;;;;;;24.00;58.10;;;;;;1566330;74;764;-68
2023/09/13 11:47:47;;;;;;;;;;;24.00;58.10;;;;;;1558092;74;1521;-69
2023/09/13 11:49:49;;;;;;;;;;;23.90;58.60;;;;;;1535303;76;1085;-69
2023/09/13 11:51:57;;;;;;;;;;;24.00;58.10;;;;;;1537393;76;989;-69
2023/09/13 11:54:00;;;;;;;;;;;24.00;58.60;;;;;;1566961;74;723;-68
2023/09/13 11:56:02;;;;;;;;;;;24.00;58.90;;;;;;1567176;74;1534;-69
2023/09/13 11:58:04;;;;;;;;;;;24.00;59.20;;;;;;1569485;74;1936;-70
2023/09/13 12:00:08;;;;;;;;;;;24.00;59.20;;;;;;1570266;74;816;-70
2023/09/13 12:02:11;;;;;;;;;;;24.00;59.40;;;;;;1562684;74;1559;-69
2023/09/13 12:04:13;;;;;;;;;;;24.00;59.60;;;;;;1560571;74;803;-69
2023/09/13 12:06:15;;;;;;;;;;;23.90;59.70;;;;;;1568736;74;795;-69
2023/09/13 12:08:24;;;;;;;;;;;24.00;59.60;;;;;;1568130;74;1113;-68
2023/09/13 12:10:31;;;;;;;;;;;24.00;59.40;;;;;;1553318;74;1825;-69